Terminal Aerodrome Forecast
Issued by NWS

Home | Current Version | Previous Version | Text Only | Print | Product List | Glossary On
Versions: 1 2 3 4 5 6 7 8 9 10 11 12
000
FTUS46 KMTR 261700
TAFOAK
TAF
KOAK 261720Z 2618/2724 10006KT P6SM FEW250
     FM262000 26005KT P6SM FEW250
     FM270300 VRB03KT P6SM SCT250
     FM270900 10005KT P6SM SCT250
     FM272000 28007KT P6SM SCT250=

USA.gov is the U.S. government's official web portal to all federal, state and local government web resources and services.